sensor_id;sensor_type;location;lat;lon;timestamp;P1;durP1;ratioP1;P2;durP2;ratioP2
32094;SDS011;18608;53.688;10.748;2023-08-20T00:01:05;9.20;;;4.30;;
32094;SDS011;18608;53.688;10.748;2023-08-20T00:03:33;12.33;;;5.17;;
32094;SDS011;18608;53.688;10.748;2023-08-20T00:05:59;9.23;;;5.67;;
32094;SDS011;18608;53.688;10.748;2023-08-20T00:08:25;12.80;;;5.77;;
32094;SDS011;18608;53.688;10.748;2023-08-20T00:10:51;10.33;;;6.83;;
32094;SDS011;18608;53.688;10.748;2023-08-20T00:13:17;10.40;;;7.57;;
32094;SDS011;18608;53.688;10.748;2023-08-20T00:15:43;12.10;;;5.80;;
32094;SDS011;18608;53.688;10.748;2023-08-20T00:18:09;8.70;;;4.90;;
32094;SDS011;18608;53.688;10.748;2023-08-20T00:20:35;7.57;;;4.73;;
32094;SDS011;18608;53.688;10.748;2023-08-20T00:23:01;9.53;;;6.07;;
32094;SDS011;18608;53.688;10.748;2023-08-20T00:25:27;16.87;;;6.40;;
32094;SDS011;18608;53.688;10.748;2023-08-20T00:27:53;10.23;;;6.13;;
32094;SDS011;18608;53.688;10.748;2023-08-20T00:30:19;10.63;;;6.50;;
32094;SDS011;18608;53.688;10.748;2023-08-20T00:32:45;15.20;;;6.00;;
32094;SDS011;18608;53.688;10.748;2023-08-20T00:35:12;12.00;;;7.77;;
32094;SDS011;18608;53.688;10.748;2023-08-20T00:37:37;16.30;;;8.50;;
32094;SDS011;18608;53.688;10.748;2023-08-20T00:40:03;12.47;;;6.13;;
32094;SDS011;18608;53.688;10.748;2023-08-20T00:42:30;11.97;;;6.60;;
32094;SDS011;18608;53.688;10.748;2023-08-20T00:44:56;13.57;;;5.83;;
32094;SDS011;18608;53.688;10.748;2023-08-20T00:47:22;14.97;;;6.20;;
32094;SDS011;18608;53.688;10.748;2023-08-20T00:49:48;12.40;;;8.03;;
32094;SDS011;18608;53.688;10.748;2023-08-20T00:52:15;17.87;;;7.47;;
32094;SDS011;18608;53.688;10.748;2023-08-20T00:54:45;20.03;;;7.67;;
32094;SDS011;18608;53.688;10.748;2023-08-20T00:57:13;11.60;;;6.40;;
32094;SDS011;18608;53.688;10.748;2023-08-20T00:59:40;20.60;;;8.17;;
32094;SDS011;18608;53.688;10.748;2023-08-20T01:02:06;15.63;;;7.20;;
32094;SDS011;18608;53.688;10.748;2023-08-20T01:04:32;22.50;;;7.27;;
32094;SDS011;18608;53.688;10.748;2023-08-20T01:07:14;16.63;;;7.67;;
32094;SDS011;18608;53.688;10.748;2023-08-20T01:12:42;12.20;;;7.93;;
32094;SDS011;18608;53.688;10.748;2023-08-20T01:15:10;16.40;;;7.50;;
32094;SDS011;18608;53.688;10.748;2023-08-20T01:17:42;31.97;;;11.63;;
32094;SDS011;18608;53.688;10.748;2023-08-20T01:20:11;22.43;;;8.80;;
32094;SDS011;18608;53.688;10.748;2023-08-20T01:25:30;21.83;;;7.73;;
32094;SDS011;18608;53.688;10.748;2023-08-20T01:30:42;24.87;;;8.80;;
32094;SDS011;18608;53.688;10.748;2023-08-20T01:33:09;21.40;;;9.70;;
32094;SDS011;18608;53.688;10.748;2023-08-20T01:35:37;12.87;;;7.70;;
32094;SDS011;18608;53.688;10.748;2023-08-20T01:38:03;18.93;;;9.20;;
32094;SDS011;18608;53.688;10.748;2023-08-20T01:40:30;17.90;;;9.70;;
32094;SDS011;18608;53.688;10.748;2023-08-20T01:42:56;14.40;;;9.33;;
32094;SDS011;18608;53.688;10.748;2023-08-20T01:45:22;27.47;;;11.53;;
32094;SDS011;18608;53.688;10.748;2023-08-20T01:47:48;20.87;;;8.70;;
32094;SDS011;18608;53.688;10.748;2023-08-20T01:50:14;22.70;;;9.50;;
32094;SDS011;18608;53.688;10.748;2023-08-20T01:52:40;31.33;;;9.70;;
32094;SDS011;18608;53.688;10.748;2023-08-20T01:55:06;20.70;;;9.23;;
32094;SDS011;18608;53.688;10.748;2023-08-20T01:57:32;19.83;;;8.23;;
32094;SDS011;18608;53.688;10.748;2023-08-20T01:59:58;17.57;;;8.50;;
32094;SDS011;18608;53.688;10.748;2023-08-20T02:02:25;16.20;;;8.00;;
32094;SDS011;18608;53.688;10.748;2023-08-20T02:04:51;15.57;;;8.50;;
32094;SDS011;18608;53.688;10.748;2023-08-20T02:07:17;21.97;;;8.63;;
32094;SDS011;18608;53.688;10.748;2023-08-20T02:09:43;12.30;;;8.40;;
32094;SDS011;18608;53.688;10.748;2023-08-20T02:12:09;18.70;;;8.70;;
32094;SDS011;18608;53.688;10.748;2023-08-20T02:14:35;18.33;;;8.63;;
32094;SDS011;18608;53.688;10.748;2023-08-20T02:17:01;16.70;;;8.57;;
32094;SDS011;18608;53.688;10.748;2023-08-20T02:19:27;18.23;;;9.40;;
32094;SDS011;18608;53.688;10.748;2023-08-20T02:21:53;20.33;;;10.43;;
32094;SDS011;18608;53.688;10.748;2023-08-20T02:24:19;17.30;;;8.53;;
32094;SDS011;18608;53.688;10.748;2023-08-20T02:26:46;26.63;;;9.87;;
32094;SDS011;18608;53.688;10.748;2023-08-20T02:29:12;21.60;;;8.97;;
32094;SDS011;18608;53.688;10.748;2023-08-20T02:31:38;22.10;;;10.40;;
32094;SDS011;18608;53.688;10.748;2023-08-20T02:34:04;17.50;;;10.40;;
32094;SDS011;18608;53.688;10.748;2023-08-20T02:36:30;27.87;;;11.17;;
32094;SDS011;18608;53.688;10.748;2023-08-20T02:38:56;28.30;;;12.70;;
32094;SDS011;18608;53.688;10.748;2023-08-20T02:41:22;24.37;;;11.80;;
32094;SDS011;18608;53.688;10.748;2023-08-20T02:43:48;26.53;;;10.47;;
32094;SDS011;18608;53.688;10.748;2023-08-20T02:46:14;31.53;;;12.80;;
32094;SDS011;18608;53.688;10.748;2023-08-20T02:48:40;22.17;;;11.80;;
32094;SDS011;18608;53.688;10.748;2023-08-20T02:51:06;28.40;;;11.97;;
32094;SDS011;18608;53.688;10.748;2023-08-20T02:53:32;22.83;;;10.60;;
32094;SDS011;18608;53.688;10.748;2023-08-20T02:55:58;24.00;;;11.50;;
32094;SDS011;18608;53.688;10.748;2023-08-20T02:58:24;26.90;;;11.77;;
32094;SDS011;18608;53.688;10.748;2023-08-20T03:00:50;18.73;;;10.97;;
32094;SDS011;18608;53.688;10.748;2023-08-20T03:03:18;30.93;;;12.83;;
32094;SDS011;18608;53.688;10.748;2023-08-20T03:05:44;31.87;;;13.10;;
32094;SDS011;18608;53.688;10.748;2023-08-20T03:08:10;28.53;;;11.97;;
32094;SDS011;18608;53.688;10.748;2023-08-20T03:10:36;33.27;;;14.57;;
32094;SDS011;18608;53.688;10.748;2023-08-20T03:13:02;30.90;;;13.87;;
32094;SDS011;18608;53.688;10.748;2023-08-20T03:15:28;39.67;;;15.50;;
32094;SDS011;18608;53.688;10.748;2023-08-20T03:17:54;52.43;;;17.93;;
32094;SDS011;18608;53.688;10.748;2023-08-20T03:20:21;43.93;;;14.80;;
32094;SDS011;18608;53.688;10.748;2023-08-20T03:22:47;44.97;;;14.97;;
32094;SDS011;18608;53.688;10.748;2023-08-20T03:25:13;65.33;;;17.90;;
32094;SDS011;18608;53.688;10.748;2023-08-20T03:27:39;74.10;;;19.73;;
32094;SDS011;18608;53.688;10.748;2023-08-20T03:30:05;66.33;;;16.70;;
32094;SDS011;18608;53.688;10.748;2023-08-20T03:32:32;44.80;;;16.23;;
32094;SDS011;18608;53.688;10.748;2023-08-20T03:34:58;37.30;;;15.67;;
32094;SDS011;18608;53.688;10.748;2023-08-20T03:37:27;43.70;;;17.40;;
32094;SDS011;18608;53.688;10.748;2023-08-20T03:39:52;32.13;;;16.43;;
32094;SDS011;18608;53.688;10.748;2023-08-20T03:42:18;40.57;;;16.63;;
32094;SDS011;18608;53.688;10.748;2023-08-20T03:44:44;32.43;;;14.83;;
32094;SDS011;18608;53.688;10.748;2023-08-20T03:47:10;34.80;;;16.30;;
32094;SDS011;18608;53.688;10.748;2023-08-20T03:49:37;41.60;;;16.17;;
32094;SDS011;18608;53.688;10.748;2023-08-20T03:52:03;45.07;;;17.77;;
32094;SDS011;18608;53.688;10.748;2023-08-20T03:54:29;42.53;;;16.80;;
32094;SDS011;18608;53.688;10.748;2023-08-20T03:56:55;44.60;;;16.67;;
32094;SDS011;18608;53.688;10.748;2023-08-20T03:59:21;62.07;;;18.47;;
32094;SDS011;18608;53.688;10.748;2023-08-20T04:01:47;55.03;;;18.53;;
32094;SDS011;18608;53.688;10.748;2023-08-20T04:04:14;50.50;;;20.73;;
32094;SDS011;18608;53.688;10.748;2023-08-20T04:06:40;48.20;;;19.20;;
32094;SDS011;18608;53.688;10.748;2023-08-20T04:09:06;43.00;;;18.30;;
32094;SDS011;18608;53.688;10.748;2023-08-20T04:11:34;45.90;;;19.80;;
32094;SDS011;18608;53.688;10.748;2023-08-20T04:14:00;43.47;;;18.93;;
32094;SDS011;18608;53.688;10.748;2023-08-20T04:16:26;46.20;;;19.27;;
32094;SDS011;18608;53.688;10.748;2023-08-20T04:18:52;49.90;;;20.93;;
32094;SDS011;18608;53.688;10.748;2023-08-20T04:21:17;50.33;;;20.10;;
32094;SDS011;18608;53.688;10.748;2023-08-20T04:23:43;44.30;;;18.70;;
32094;SDS011;18608;53.688;10.748;2023-08-20T04:26:09;43.23;;;19.93;;
32094;SDS011;18608;53.688;10.748;2023-08-20T04:28:35;41.47;;;18.60;;
32094;SDS011;18608;53.688;10.748;2023-08-20T04:31:01;36.87;;;19.90;;
32094;SDS011;18608;53.688;10.748;2023-08-20T04:33:27;45.00;;;18.70;;
32094;SDS011;18608;53.688;10.748;2023-08-20T04:35:53;42.17;;;20.63;;
32094;SDS011;18608;53.688;10.748;2023-08-20T04:38:19;39.10;;;18.77;;
32094;SDS011;18608;53.688;10.748;2023-08-20T04:40:46;42.50;;;19.60;;
32094;SDS011;18608;53.688;10.748;2023-08-20T04:43:12;42.53;;;17.57;;
32094;SDS011;18608;53.688;10.748;2023-08-20T04:45:38;47.10;;;19.23;;
32094;SDS011;18608;53.688;10.748;2023-08-20T04:48:04;43.63;;;20.87;;
32094;SDS011;18608;53.688;10.748;2023-08-20T04:50:30;46.47;;;19.60;;
32094;SDS011;18608;53.688;10.748;2023-08-20T04:52:56;48.73;;;18.37;;
32094;SDS011;18608;53.688;10.748;2023-08-20T04:55:24;36.50;;;17.57;;
32094;SDS011;18608;53.688;10.748;2023-08-20T04:57:51;35.57;;;16.77;;
32094;SDS011;18608;53.688;10.748;2023-08-20T05:00:17;34.23;;;16.50;;
32094;SDS011;18608;53.688;10.748;2023-08-20T05:02:43;47.93;;;18.67;;
32094;SDS011;18608;53.688;10.748;2023-08-20T05:05:10;27.80;;;15.33;;
32094;SDS011;18608;53.688;10.748;2023-08-20T05:07:36;34.00;;;17.63;;
32094;SDS011;18608;53.688;10.748;2023-08-20T05:10:02;29.50;;;16.63;;
32094;SDS011;18608;53.688;10.748;2023-08-20T05:12:28;40.00;;;16.07;;
32094;SDS011;18608;53.688;10.748;2023-08-20T05:14:54;28.10;;;13.03;;
32094;SDS011;18608;53.688;10.748;2023-08-20T05:17:20;35.63;;;16.07;;
32094;SDS011;18608;53.688;10.748;2023-08-20T05:19:46;27.43;;;13.00;;
32094;SDS011;18608;53.688;10.748;2023-08-20T05:22:12;30.10;;;14.43;;
32094;SDS011;18608;53.688;10.748;2023-08-20T05:24:38;31.97;;;12.87;;
32094;SDS011;18608;53.688;10.748;2023-08-20T05:29:31;22.70;;;12.60;;
32094;SDS011;18608;53.688;10.748;2023-08-20T05:31:57;22.53;;;12.00;;
32094;SDS011;18608;53.688;10.748;2023-08-20T05:34:23;24.43;;;12.17;;
32094;SDS011;18608;53.688;10.748;2023-08-20T05:36:49;18.13;;;11.53;;
32094;SDS011;18608;53.688;10.748;2023-08-20T05:39:15;17.93;;;9.97;;
32094;SDS011;18608;53.688;10.748;2023-08-20T05:41:41;14.43;;;9.20;;
32094;SDS011;18608;53.688;10.748;2023-08-20T05:44:07;16.97;;;10.40;;
32094;SDS011;18608;53.688;10.748;2023-08-20T05:46:33;20.30;;;10.67;;
32094;SDS011;18608;53.688;10.748;2023-08-20T05:48:59;19.47;;;10.37;;
32094;SDS011;18608;53.688;10.748;2023-08-20T05:51:25;27.33;;;11.93;;
32094;SDS011;18608;53.688;10.748;2023-08-20T05:53:51;17.23;;;11.50;;
32094;SDS011;18608;53.688;10.748;2023-08-20T05:56:17;22.47;;;11.93;;
32094;SDS011;18608;53.688;10.748;2023-08-20T05:58:43;20.30;;;10.80;;
32094;SDS011;18608;53.688;10.748;2023-08-20T06:01:09;16.30;;;10.50;;
32094;SDS011;18608;53.688;10.748;2023-08-20T06:03:35;26.57;;;11.33;;
32094;SDS011;18608;53.688;10.748;2023-08-20T06:06:01;15.70;;;9.13;;
32094;SDS011;18608;53.688;10.748;2023-08-20T06:08:28;24.00;;;10.47;;
32094;SDS011;18608;53.688;10.748;2023-08-20T06:10:53;23.03;;;10.40;;
32094;SDS011;18608;53.688;10.748;2023-08-20T06:13:19;18.23;;;10.80;;
32094;SDS011;18608;53.688;10.748;2023-08-20T06:15:45;19.37;;;10.20;;
32094;SDS011;18608;53.688;10.748;2023-08-20T06:18:11;19.17;;;10.40;;
32094;SDS011;18608;53.688;10.748;2023-08-20T06:20:37;21.33;;;8.47;;
32094;SDS011;18608;53.688;10.748;2023-08-20T06:23:03;18.87;;;11.20;;
32094;SDS011;18608;53.688;10.748;2023-08-20T06:25:29;16.70;;;8.90;;
32094;SDS011;18608;53.688;10.748;2023-08-20T06:27:55;19.00;;;9.20;;
32094;SDS011;18608;53.688;10.748;2023-08-20T06:30:21;19.10;;;11.03;;
32094;SDS011;18608;53.688;10.748;2023-08-20T06:32:47;21.77;;;11.77;;
32094;SDS011;18608;53.688;10.748;2023-08-20T06:35:13;24.70;;;11.80;;
32094;SDS011;18608;53.688;10.748;2023-08-20T06:37:39;30.23;;;12.10;;
32094;SDS011;18608;53.688;10.748;2023-08-20T06:40:06;19.80;;;11.50;;
32094;SDS011;18608;53.688;10.748;2023-08-20T06:42:32;23.80;;;12.63;;
32094;SDS011;18608;53.688;10.748;2023-08-20T06:44:58;20.50;;;11.90;;
32094;SDS011;18608;53.688;10.748;2023-08-20T06:47:25;23.27;;;11.00;;
32094;SDS011;18608;53.688;10.748;2023-08-20T06:49:51;27.73;;;11.87;;
32094;SDS011;18608;53.688;10.748;2023-08-20T06:52:17;19.20;;;10.00;;
32094;SDS011;18608;53.688;10.748;2023-08-20T06:54:44;21.67;;;11.80;;
32094;SDS011;18608;53.688;10.748;2023-08-20T06:57:09;26.67;;;11.53;;
32094;SDS011;18608;53.688;10.748;2023-08-20T06:59:36;21.97;;;10.07;;
32094;SDS011;18608;53.688;10.748;2023-08-20T07:02:02;28.93;;;9.67;;
32094;SDS011;18608;53.688;10.748;2023-08-20T07:04:28;20.80;;;10.83;;
32094;SDS011;18608;53.688;10.748;2023-08-20T07:06:54;21.63;;;8.90;;
32094;SDS011;18608;53.688;10.748;2023-08-20T07:09:22;15.50;;;7.40;;
32094;SDS011;18608;53.688;10.748;2023-08-20T07:11:48;9.50;;;6.63;;
32094;SDS011;18608;53.688;10.748;2023-08-20T07:14:14;15.20;;;6.97;;
32094;SDS011;18608;53.688;10.748;2023-08-20T07:16:40;14.80;;;8.27;;
32094;SDS011;18608;53.688;10.748;2023-08-20T07:19:06;14.87;;;7.37;;
32094;SDS011;18608;53.688;10.748;2023-08-20T07:21:32;11.00;;;6.80;;
32094;SDS011;18608;53.688;10.748;2023-08-20T07:23:58;10.13;;;5.40;;
32094;SDS011;18608;53.688;10.748;2023-08-20T07:26:24;14.20;;;7.43;;
32094;SDS011;18608;53.688;10.748;2023-08-20T07:28:50;11.13;;;6.60;;
32094;SDS011;18608;53.688;10.748;2023-08-20T07:31:22;8.40;;;5.17;;
32094;SDS011;18608;53.688;10.748;2023-08-20T07:33:49;10.23;;;4.63;;
32094;SDS011;18608;53.688;10.748;2023-08-20T07:36:15;7.80;;;5.27;;
32094;SDS011;18608;53.688;10.748;2023-08-20T07:38:42;7.47;;;4.30;;
32094;SDS011;18608;53.688;10.748;2023-08-20T07:41:09;18.73;;;5.30;;
32094;SDS011;18608;53.688;10.748;2023-08-20T07:43:36;14.80;;;5.60;;
32094;SDS011;18608;53.688;10.748;2023-08-20T07:46:03;8.43;;;3.60;;
32094;SDS011;18608;53.688;10.748;2023-08-20T07:48:29;8.83;;;3.50;;
32094;SDS011;18608;53.688;10.748;2023-08-20T07:50:55;13.60;;;3.67;;
32094;SDS011;18608;53.688;10.748;2023-08-20T07:53:21;7.20;;;3.50;;
32094;SDS011;18608;53.688;10.748;2023-08-20T07:55:47;9.27;;;4.80;;
32094;SDS011;18608;53.688;10.748;2023-08-20T07:58:13;9.53;;;3.77;;
32094;SDS011;18608;53.688;10.748;2023-08-20T08:00:39;9.40;;;3.60;;
32094;SDS011;18608;53.688;10.748;2023-08-20T08:03:05;11.43;;;3.17;;
32094;SDS011;18608;53.688;10.748;2023-08-20T08:05:31;4.80;;;2.30;;
32094;SDS011;18608;53.688;10.748;2023-08-20T08:07:57;5.47;;;3.00;;
32094;SDS011;18608;53.688;10.748;2023-08-20T08:10:23;13.57;;;3.20;;
32094;SDS011;18608;53.688;10.748;2023-08-20T08:12:49;6.10;;;2.70;;
32094;SDS011;18608;53.688;10.748;2023-08-20T08:15:15;7.97;;;2.70;;
32094;SDS011;18608;53.688;10.748;2023-08-20T08:17:41;13.43;;;2.77;;
32094;SDS011;18608;53.688;10.748;2023-08-20T08:20:07;8.83;;;2.23;;
32094;SDS011;18608;53.688;10.748;2023-08-20T08:22:33;4.93;;;2.17;;
32094;SDS011;18608;53.688;10.748;2023-08-20T08:24:59;11.47;;;2.60;;
32094;SDS011;18608;53.688;10.748;2023-08-20T08:27:25;6.10;;;2.20;;
32094;SDS011;18608;53.688;10.748;2023-08-20T08:29:51;5.90;;;2.53;;
32094;SDS011;18608;53.688;10.748;2023-08-20T08:32:17;7.93;;;2.60;;
32094;SDS011;18608;53.688;10.748;2023-08-20T08:34:43;9.80;;;2.73;;
32094;SDS011;18608;53.688;10.748;2023-08-20T08:37:09;8.17;;;3.33;;
32094;SDS011;18608;53.688;10.748;2023-08-20T08:39:35;6.43;;;3.13;;
32094;SDS011;18608;53.688;10.748;2023-08-20T08:42:01;14.40;;;2.33;;
32094;SDS011;18608;53.688;10.748;2023-08-20T08:44:32;11.93;;;2.60;;
32094;SDS011;18608;53.688;10.748;2023-08-20T08:46:58;7.57;;;2.83;;
32094;SDS011;18608;53.688;10.748;2023-08-20T08:49:24;15.53;;;2.47;;
32094;SDS011;18608;53.688;10.748;2023-08-20T08:51:51;7.00;;;2.70;;
32094;SDS011;18608;53.688;10.748;2023-08-20T08:54:21;6.13;;;2.27;;
32094;SDS011;18608;53.688;10.748;2023-08-20T08:56:47;7.50;;;2.10;;
32094;SDS011;18608;53.688;10.748;2023-08-20T08:59:14;4.33;;;1.67;;
32094;SDS011;18608;53.688;10.748;2023-08-20T09:01:40;8.17;;;2.10;;
32094;SDS011;18608;53.688;10.748;2023-08-20T09:04:06;4.10;;;1.80;;
32094;SDS011;18608;53.688;10.748;2023-08-20T09:06:51;6.50;;;2.80;;
32094;SDS011;18608;53.688;10.748;2023-08-20T09:09:18;7.40;;;2.30;;
32094;SDS011;18608;53.688;10.748;2023-08-20T09:11:45;5.13;;;2.40;;
32094;SDS011;18608;53.688;10.748;2023-08-20T09:14:24;5.87;;;2.20;;
32094;SDS011;18608;53.688;10.748;2023-08-20T09:16:57;7.67;;;2.50;;
32094;SDS011;18608;53.688;10.748;2023-08-20T09:19:27;4.30;;;2.30;;
32094;SDS011;18608;53.688;10.748;2023-08-20T09:21:55;3.40;;;2.10;;
32094;SDS011;18608;53.688;10.748;2023-08-20T09:24:40;3.77;;;2.70;;
32094;SDS011;18608;53.688;10.748;2023-08-20T09:27:16;4.10;;;2.53;;
32094;SDS011;18608;53.688;10.748;2023-08-20T09:29:55;13.10;;;2.60;;
32094;SDS011;18608;53.688;10.748;2023-08-20T09:32:25;18.00;;;3.13;;
32094;SDS011;18608;53.688;10.748;2023-08-20T09:34:52;5.23;;;2.20;;
32094;SDS011;18608;53.688;10.748;2023-08-20T09:37:20;5.30;;;2.80;;
32094;SDS011;18608;53.688;10.748;2023-08-20T09:39:47;6.30;;;2.60;;
32094;SDS011;18608;53.688;10.748;2023-08-20T09:42:13;4.37;;;2.70;;
32094;SDS011;18608;53.688;10.748;2023-08-20T09:44:40;7.37;;;3.17;;
32094;SDS011;18608;53.688;10.748;2023-08-20T09:47:13;7.50;;;3.40;;
32094;SDS011;18608;53.688;10.748;2023-08-20T09:49:46;8.77;;;3.40;;
32094;SDS011;18608;53.688;10.748;2023-08-20T09:52:21;4.30;;;3.03;;
32094;SDS011;18608;53.688;10.748;2023-08-20T09:57:32;5.30;;;3.70;;
32094;SDS011;18608;53.688;10.748;2023-08-20T10:00:00;8.77;;;4.17;;
32094;SDS011;18608;53.688;10.748;2023-08-20T10:02:28;9.00;;;3.60;;
32094;SDS011;18608;53.688;10.748;2023-08-20T10:04:54;8.33;;;3.30;;
32094;SDS011;18608;53.688;10.748;2023-08-20T10:07:20;7.17;;;3.50;;
32094;SDS011;18608;53.688;10.748;2023-08-20T10:09:49;5.60;;;3.30;;
32094;SDS011;18608;53.688;10.748;2023-08-20T10:12:17;9.67;;;3.10;;
32094;SDS011;18608;53.688;10.748;2023-08-20T10:14:43;6.57;;;4.03;;
32094;SDS011;18608;53.688;10.748;2023-08-20T10:17:09;9.50;;;3.90;;
32094;SDS011;18608;53.688;10.748;2023-08-20T10:19:37;5.70;;;2.80;;
32094;SDS011;18608;53.688;10.748;2023-08-20T10:22:03;5.83;;;3.53;;
32094;SDS011;18608;53.688;10.748;2023-08-20T10:24:47;9.63;;;3.20;;
32094;SDS011;18608;53.688;10.748;2023-08-20T10:27:23;8.80;;;4.90;;
32094;SDS011;18608;53.688;10.748;2023-08-20T10:29:52;9.20;;;4.10;;
32094;SDS011;18608;53.688;10.748;2023-08-20T10:32:19;11.70;;;4.20;;
32094;SDS011;18608;53.688;10.748;2023-08-20T10:34:49;7.63;;;3.77;;
32094;SDS011;18608;53.688;10.748;2023-08-20T10:37:21;10.43;;;3.43;;
32094;SDS011;18608;53.688;10.748;2023-08-20T10:39:55;11.17;;;4.10;;
32094;SDS011;18608;53.688;10.748;2023-08-20T10:42:25;6.80;;;3.70;;
32094;SDS011;18608;53.688;10.748;2023-08-20T10:45:01;6.17;;;3.60;;
32094;SDS011;18608;53.688;10.748;2023-08-20T10:47:41;4.03;;;3.47;;
32094;SDS011;18608;53.688;10.748;2023-08-20T10:50:11;6.47;;;3.10;;
32094;SDS011;18608;53.688;10.748;2023-08-20T10:52:40;5.73;;;2.60;;
32094;SDS011;18608;53.688;10.748;2023-08-20T10:55:09;8.03;;;2.87;;
32094;SDS011;18608;53.688;10.748;2023-08-20T10:57:35;3.23;;;2.30;;
32094;SDS011;18608;53.688;10.748;2023-08-20T11:00:05;7.23;;;3.30;;
32094;SDS011;18608;53.688;10.748;2023-08-20T11:02:35;6.73;;;2.90;;
32094;SDS011;18608;53.688;10.748;2023-08-20T11:05:02;7.97;;;1.80;;
32094;SDS011;18608;53.688;10.748;2023-08-20T11:07:29;6.73;;;2.07;;
32094;SDS011;18608;53.688;10.748;2023-08-20T11:09:57;5.73;;;2.23;;
32094;SDS011;18608;53.688;10.748;2023-08-20T11:12:23;12.20;;;3.57;;
32094;SDS011;18608;53.688;10.748;2023-08-20T11:14:49;5.43;;;3.70;;
32094;SDS011;18608;53.688;10.748;2023-08-20T11:17:15;6.17;;;2.60;;
32094;SDS011;18608;53.688;10.748;2023-08-20T11:19:41;6.57;;;2.37;;
32094;SDS011;18608;53.688;10.748;2023-08-20T11:22:07;2.70;;;2.50;;
32094;SDS011;18608;53.688;10.748;2023-08-20T11:24:33;7.20;;;3.20;;
32094;SDS011;18608;53.688;10.748;2023-08-20T11:27:01;2.80;;;2.17;;
32094;SDS011;18608;53.688;10.748;2023-08-20T11:29:27;6.13;;;2.63;;
32094;SDS011;18608;53.688;10.748;2023-08-20T11:31:56;8.50;;;2.90;;
32094;SDS011;18608;53.688;10.748;2023-08-20T11:34:22;3.67;;;3.00;;
32094;SDS011;18608;53.688;10.748;2023-08-20T11:36:49;4.33;;;2.63;;
32094;SDS011;18608;53.688;10.748;2023-08-20T11:39:15;3.53;;;2.27;;
32094;SDS011;18608;53.688;10.748;2023-08-20T11:41:41;3.57;;;2.30;;
32094;SDS011;18608;53.688;10.748;2023-08-20T11:44:09;3.83;;;2.00;;
32094;SDS011;18608;53.688;10.748;2023-08-20T11:46:41;11.07;;;1.93;;
32094;SDS011;18608;53.688;10.748;2023-08-20T11:49:09;10.67;;;2.40;;
32094;SDS011;18608;53.688;10.748;2023-08-20T11:54:02;6.73;;;2.67;;
32094;SDS011;18608;53.688;10.748;2023-08-20T11:56:29;6.80;;;2.40;;
32094;SDS011;18608;53.688;10.748;2023-08-20T11:58:58;4.63;;;2.00;;
32094;SDS011;18608;53.688;10.748;2023-08-20T12:01:25;3.60;;;2.40;;
32094;SDS011;18608;53.688;10.748;2023-08-20T12:03:51;6.00;;;1.80;;
32094;SDS011;18608;53.688;10.748;2023-08-20T12:06:20;3.20;;;2.10;;
32094;SDS011;18608;53.688;10.748;2023-08-20T12:08:48;4.43;;;2.57;;
32094;SDS011;18608;53.688;10.748;2023-08-20T12:11:14;4.63;;;2.23;;
32094;SDS011;18608;53.688;10.748;2023-08-20T12:13:40;4.80;;;2.47;;
32094;SDS011;18608;53.688;10.748;2023-08-20T12:16:06;6.03;;;2.60;;
32094;SDS011;18608;53.688;10.748;2023-08-20T12:18:32;2.97;;;1.80;;
32094;SDS011;18608;53.688;10.748;2023-08-20T12:20:58;2.53;;;2.03;;
32094;SDS011;18608;53.688;10.748;2023-08-20T12:23:24;7.17;;;2.73;;
32094;SDS011;18608;53.688;10.748;2023-08-20T12:25:51;4.70;;;2.40;;
32094;SDS011;18608;53.688;10.748;2023-08-20T12:28:17;7.90;;;2.00;;
32094;SDS011;18608;53.688;10.748;2023-08-20T12:30:43;3.70;;;2.10;;
32094;SDS011;18608;53.688;10.748;2023-08-20T12:33:09;6.10;;;2.40;;
32094;SDS011;18608;53.688;10.748;2023-08-20T12:35:36;5.20;;;2.80;;
32094;SDS011;18608;53.688;10.748;2023-08-20T12:38:02;7.73;;;3.50;;
32094;SDS011;18608;53.688;10.748;2023-08-20T12:40:28;4.80;;;2.40;;
32094;SDS011;18608;53.688;10.748;2023-08-20T12:42:54;10.27;;;2.30;;
32094;SDS011;18608;53.688;10.748;2023-08-20T12:45:20;7.37;;;2.27;;
32094;SDS011;18608;53.688;10.748;2023-08-20T12:47:47;3.23;;;2.43;;
32094;SDS011;18608;53.688;10.748;2023-08-20T12:50:13;3.43;;;2.43;;
32094;SDS011;18608;53.688;10.748;2023-08-20T12:52:39;2.53;;;2.03;;
32094;SDS011;18608;53.688;10.748;2023-08-20T12:55:06;10.00;;;2.70;;
32094;SDS011;18608;53.688;10.748;2023-08-20T12:57:35;6.07;;;2.20;;
32094;SDS011;18608;53.688;10.748;2023-08-20T13:00:04;2.57;;;1.80;;
32094;SDS011;18608;53.688;10.748;2023-08-20T13:02:36;4.87;;;2.50;;
32094;SDS011;18608;53.688;10.748;2023-08-20T13:05:02;6.40;;;2.13;;
32094;SDS011;18608;53.688;10.748;2023-08-20T13:07:28;3.97;;;2.33;;
32094;SDS011;18608;53.688;10.748;2023-08-20T13:09:54;6.33;;;2.20;;
32094;SDS011;18608;53.688;10.748;2023-08-20T13:12:20;3.70;;;2.07;;
32094;SDS011;18608;53.688;10.748;2023-08-20T13:14:52;8.67;;;2.40;;
32094;SDS011;18608;53.688;10.748;2023-08-20T13:17:18;8.07;;;2.70;;
32094;SDS011;18608;53.688;10.748;2023-08-20T13:19:44;7.57;;;2.40;;
32094;SDS011;18608;53.688;10.748;2023-08-20T13:22:10;5.70;;;1.93;;
32094;SDS011;18608;53.688;10.748;2023-08-20T13:24:36;3.90;;;1.90;;
32094;SDS011;18608;53.688;10.748;2023-08-20T13:27:02;4.03;;;2.30;;
32094;SDS011;18608;53.688;10.748;2023-08-20T13:29:28;6.77;;;2.30;;
32094;SDS011;18608;53.688;10.748;2023-08-20T13:31:54;3.73;;;2.03;;
32094;SDS011;18608;53.688;10.748;2023-08-20T13:34:20;8.73;;;2.80;;
32094;SDS011;18608;53.688;10.748;2023-08-20T13:36:46;4.17;;;2.57;;
32094;SDS011;18608;53.688;10.748;2023-08-20T13:39:12;3.40;;;2.20;;
32094;SDS011;18608;53.688;10.748;2023-08-20T13:41:39;4.00;;;2.30;;
32094;SDS011;18608;53.688;10.748;2023-08-20T13:44:05;4.30;;;2.10;;
32094;SDS011;18608;53.688;10.748;2023-08-20T13:46:31;3.70;;;1.90;;
32094;SDS011;18608;53.688;10.748;2023-08-20T13:48:57;3.73;;;2.00;;
32094;SDS011;18608;53.688;10.748;2023-08-20T13:51:23;3.10;;;1.93;;
32094;SDS011;18608;53.688;10.748;2023-08-20T13:53:49;3.67;;;2.37;;
32094;SDS011;18608;53.688;10.748;2023-08-20T13:56:15;3.97;;;2.03;;
32094;SDS011;18608;53.688;10.748;2023-08-20T13:58:41;3.87;;;2.80;;
32094;SDS011;18608;53.688;10.748;2023-08-20T14:01:07;1.90;;;1.47;;
32094;SDS011;18608;53.688;10.748;2023-08-20T14:03:33;5.50;;;1.90;;
32094;SDS011;18608;53.688;10.748;2023-08-20T14:06:00;13.20;;;2.13;;
32094;SDS011;18608;53.688;10.748;2023-08-20T14:08:26;6.63;;;2.57;;
32094;SDS011;18608;53.688;10.748;2023-08-20T14:10:52;6.00;;;2.83;;
32094;SDS011;18608;53.688;10.748;2023-08-20T14:13:18;5.47;;;2.50;;
32094;SDS011;18608;53.688;10.748;2023-08-20T14:15:44;3.53;;;2.20;;
32094;SDS011;18608;53.688;10.748;2023-08-20T14:18:10;8.50;;;2.10;;
32094;SDS011;18608;53.688;10.748;2023-08-20T14:20:36;2.20;;;2.00;;
32094;SDS011;18608;53.688;10.748;2023-08-20T14:23:02;4.63;;;1.93;;
32094;SDS011;18608;53.688;10.748;2023-08-20T14:25:28;3.90;;;2.60;;
32094;SDS011;18608;53.688;10.748;2023-08-20T14:27:54;2.30;;;1.97;;
32094;SDS011;18608;53.688;10.748;2023-08-20T14:30:20;2.63;;;1.93;;
32094;SDS011;18608;53.688;10.748;2023-08-20T14:32:46;4.63;;;2.20;;
32094;SDS011;18608;53.688;10.748;2023-08-20T14:35:13;1.93;;;1.63;;
32094;SDS011;18608;53.688;10.748;2023-08-20T14:37:39;8.40;;;2.03;;